Time;durP1;ratioP1;P1;durP2;ratioP2;P2;SDS_P1;SDS_P2;PMS_P1;PMS_P2;Temp;Humidity;BMP_temperature;BMP_pressure;BME280_temperature;BME280_humidity;BME280_pressure;Samples;Min_cycle;Max_cycle;Signal;HPM_P1;HPM_P2
2023/10/01 00:00:06;;;;;;;13.07;7.70;;;;;;;13.51;94.18;154828.81;4915319;29;20892;-84
2023/10/01 00:02:33;;;;;;;10.73;7.80;;;;;;;13.52;94.83;154831.44;4911261;29;20476;-84
2023/10/01 00:05:00;;;;;;;10.27;7.07;;;;;;;13.50;94.96;154827.56;4905764;29;20531;-84
2023/10/01 00:07:28;;;;;;;9.10;7.23;;;;;;;13.49;95.51;154823.66;4921705;29;20470;-84
2023/10/01 00:09:56;;;;;;;16.60;11.37;;;;;;;13.49;95.50;154823.66;4931210;29;20586;-84
2023/10/01 00:12:23;;;;;;;10.17;8.10;;;;;;;13.49;95.70;154824.94;4930861;29;20491;-84
2023/10/01 00:14:52;;;;;;;11.50;7.60;;;;;;;13.49;95.87;154823.66;4909486;29;20470;-84
2023/10/01 00:17:22;;;;;;;9.63;7.30;;;;;;;13.48;95.81;154821.03;4925521;29;20468;-85
2023/10/01 00:19:48;;;;;;;10.70;8.00;;;;;;;13.46;95.97;154817.16;4899340;29;20511;-84
2023/10/01 00:22:17;;;;;;;11.47;7.83;;;;;;;13.48;96.48;154821.03;4915896;29;20544;-84
2023/10/01 00:24:44;;;;;;;11.17;8.30;;;;;;;13.47;96.74;154818.47;4914806;29;20452;-84
2023/10/01 00:27:12;;;;;;;11.97;9.00;;;;;;;13.45;96.70;154813.28;4933111;29;20464;-84
2023/10/01 00:29:39;;;;;;;11.03;8.40;;;;;;;13.42;97.00;154806.81;4915241;29;20467;-84
2023/10/01 00:32:05;;;;;;;10.90;8.73;;;;;;;13.43;97.48;154810.66;4914799;29;20480;-84
2023/10/01 00:34:32;;;;;;;13.70;9.10;;;;;;;13.43;97.39;154809.38;4925150;29;20463;-84
2023/10/01 00:36:58;;;;;;;12.27;8.23;;;;;;;13.40;98.18;154802.88;4922157;29;20486;-84
2023/10/01 00:39:25;;;;;;;13.40;8.13;;;;;;;13.38;98.67;154797.69;4933151;29;20460;-84
2023/10/01 00:41:52;;;;;;;10.70;7.87;;;;;;;13.37;98.72;154795.09;4915220;29;20471;-85
2023/10/01 00:44:20;;;;;;;9.57;8.50;;;;;;;13.38;98.71;154797.69;4916494;29;20488;-84
2023/10/01 00:46:48;;;;;;;11.37;8.67;;;;;;;13.35;98.48;154789.91;4915133;29;21008;-84
2023/10/01 00:49:14;;;;;;;12.20;8.90;;;;;;;13.33;98.62;154784.72;4905346;29;20488;-85
2023/10/01 00:51:43;;;;;;;10.10;8.13;;;;;;;13.32;98.53;154780.81;4920903;29;21061;-85
2023/10/01 00:54:10;;;;;;;11.50;8.13;;;;;;;13.28;98.63;154770.44;4911257;29;20465;-84
2023/10/01 00:56:39;;;;;;;10.10;7.40;;;;;;;13.24;98.68;154761.34;4896841;29;20532;-84
2023/10/01 00:59:06;;;;;;;10.03;8.27;;;;;;;13.16;99.03;154740.59;4933638;29;20515;-85
2023/10/01 01:01:34;;;;;;;12.03;8.70;;;;;;;13.14;99.26;154734.09;4909628;29;20488;-84
2023/10/01 01:04:07;;;;;;;12.63;8.30;;;;;;;13.12;99.08;154728.94;4913680;29;20527;-84
2023/10/01 01:06:37;;;;;;;11.90;7.97;;;;;;;13.07;99.04;154717.25;4938705;29;20466;-85
2023/10/01 01:09:04;;;;;;;12.10;8.83;;;;;;;13.04;99.06;154709.44;4904618;29;20464;-84
2023/10/01 01:11:30;;;;;;;9.50;8.07;;;;;;;12.99;99.24;154696.47;4914651;29;20463;-84
2023/10/01 01:13:57;;;;;;;12.47;8.00;;;;;;;12.92;99.31;154677.00;4909388;29;20828;-84
2023/10/01 01:16:25;;;;;;;13.50;8.30;;;;;;;12.89;99.22;154670.53;4915003;29;20480;-84
2023/10/01 01:18:54;;;;;;;11.33;8.13;;;;;;;12.87;99.51;154665.28;4912100;29;20468;-84
2023/10/01 01:21:20;;;;;;;11.20;8.40;;;;;;;12.83;99.38;154654.94;4909302;29;20460;-85
2023/10/01 01:23:50;;;;;;;12.60;9.77;;;;;;;12.78;99.64;154643.28;4897950;29;20464;-85
2023/10/01 01:26:20;;;;;;;11.10;8.50;;;;;;;12.79;99.77;154644.53;4911368;29;20437;-85
2023/10/01 01:28:47;;;;;;;11.27;8.40;;;;;;;12.76;99.72;154638.06;4926615;29;20826;-85
2023/10/01 01:31:16;;;;;;;11.33;8.07;;;;;;;12.74;100.00;154631.56;4913457;29;20894;-85
2023/10/01 01:33:44;;;;;;;12.37;9.90;;;;;;;12.72;99.97;154626.41;4915461;29;20499;-84
2023/10/01 01:36:12;;;;;;;10.87;7.90;;;;;;;12.70;100.00;154622.53;4916125;29;20472;-85
2023/10/01 01:38:45;;;;;;;11.90;8.93;;;;;;;12.70;100.00;154621.22;4913463;29;20917;-85
2023/10/01 01:41:19;;;;;;;12.27;8.70;;;;;;;12.70;100.00;154621.22;4914638;29;20456;-85
2023/10/01 01:43:49;;;;;;;14.87;10.07;;;;;;;12.69;100.00;154619.91;4913058;29;20880;-84
2023/10/01 01:46:16;;;;;;;12.20;8.53;;;;;;;12.69;100.00;154618.63;4925572;29;20456;-85
2023/10/01 01:48:43;;;;;;;14.30;9.73;;;;;;;12.73;100.00;154630.28;4907085;29;20464;-85
2023/10/01 01:51:09;;;;;;;11.87;8.60;;;;;;;12.68;100.00;154616.03;4912709;29;20709;-85
2023/10/01 01:53:41;;;;;;;10.30;8.77;;;;;;;12.62;99.99;154601.78;4911324;29;20510;-85
2023/10/01 01:56:08;;;;;;;11.37;8.27;;;;;;;12.58;100.00;154591.38;4929175;29;20473;-85
2023/10/01 01:58:37;;;;;;;12.77;9.10;;;;;;;12.55;100.00;154583.59;4906891;29;21033;-86
2023/10/01 02:01:17;;;;;;;12.90;9.07;;;;;;;12.53;100.00;154577.09;4930204;29;20983;-85
2023/10/01 02:03:46;;;;;;;11.57;7.90;;;;;;;12.52;100.00;154574.53;4912909;29;20467;-86
2023/10/01 02:06:14;;;;;;;13.80;9.17;;;;;;;12.50;100.00;154569.31;4914767;29;20862;-85
2023/10/01 02:08:49;;;;;;;15.10;10.60;;;;;;;12.52;100.00;154574.53;4926353;29;21063;-85
2023/10/01 02:11:18;;;;;;;15.63;9.70;;;;;;;12.49;100.00;154568.06;4913519;29;20446;-85
2023/10/01 02:13:50;;;;;;;11.70;9.00;;;;;;;12.47;100.00;154561.59;4913607;29;20452;-85
2023/10/01 02:16:35;;;;;;;12.90;9.33;;;;;;;12.47;100.00;154561.59;4907397;29;20503;-86
2023/10/01 02:19:15;;;;;;;14.70;9.47;;;;;;;12.43;100.00;154551.19;4906668;29;20463;-86
2023/10/01 02:21:48;;;;;;;14.83;10.27;;;;;;;12.41;100.00;154546.00;4929064;29;20893;-85
2023/10/01 02:24:19;;;;;;;10.90;9.20;;;;;;;12.38;100.00;154538.22;4907343;29;20798;-85
2023/10/01 02:26:47;;;;;;;14.13;9.70;;;;;;;12.40;100.00;154543.41;4908431;29;20472;-86
2023/10/01 02:29:16;;;;;;;13.63;9.60;;;;;;;12.38;100.00;154539.53;4915177;29;20463;-86
2023/10/01 02:31:47;;;;;;;11.60;8.40;;;;;;;12.35;100.00;154530.44;4918341;29;20492;-86
2023/10/01 02:34:14;;;;;;;11.33;9.23;;;;;;;12.31;100.00;154520.09;4920319;29;20503;-85
2023/10/01 02:36:42;;;;;;;14.00;9.30;;;;;;;12.29;100.00;154516.16;4943150;29;20488;-86
2023/10/01 02:39:19;;;;;;;12.83;9.43;;;;;;;12.28;100.00;154512.31;4927536;29;20468;-86
2023/10/01 02:42:03;;;;;;;13.93;9.60;;;;;;;12.25;100.00;154505.81;4920676;29;20488;-86
2023/10/01 02:44:32;;;;;;;9.07;7.77;;;;;;;12.23;100.00;154499.34;4934315;29;20459;-85
2023/10/01 02:47:02;;;;;;;12.57;9.17;;;;;;;12.18;100.00;154487.63;4917657;29;20436;-86
2023/10/01 02:49:32;;;;;;;10.53;7.87;;;;;;;12.18;100.00;154487.63;4912627;29;20457;-86
2023/10/01 02:51:59;;;;;;;13.00;8.70;;;;;;;12.15;100.00;154481.16;4915204;29;20465;-86
2023/10/01 02:54:26;;;;;;;13.67;9.77;;;;;;;12.09;100.00;154464.31;4912277;29;20551;-85
2023/10/01 02:57:12;;;;;;;12.63;8.60;;;;;;;12.05;100.00;154455.25;4921281;29;20478;-85
2023/10/01 03:00:20;;;;;;;13.87;10.00;;;;;;;12.00;100.00;154442.28;4896204;29;20511;-86
2023/10/01 03:02:30;;;;;;;12.50;9.40;;;;;;;12.01;100.00;154444.91;4910603;29;20580;-86
2023/10/01 03:05:01;;;;;;;15.70;9.40;;;;;;;12.03;100.00;154450.06;4914420;29;20523;-87
2023/10/01 03:07:32;;;;;;;11.70;9.90;;;;;;;12.01;100.00;154444.91;4909065;29;20475;-87
2023/10/01 03:10:00;;;;;;;11.63;8.70;;;;;;;11.96;100.00;154430.63;4932166;29;20459;-87
2023/10/01 03:12:35;;;;;;;10.30;8.60;;;;;;;11.93;100.00;154424.16;4907544;29;20477;-87
2023/10/01 03:15:23;;;;;;;13.27;8.87;;;;;;;11.91;100.00;154417.66;4921828;29;20538;-86
2023/10/01 03:17:56;;;;;;;13.30;9.00;;;;;;;11.85;100.00;154403.41;4912674;29;20468;-86
2023/10/01 03:23:05;;;;;;;12.97;9.03;;;;;;;11.81;100.00;154391.75;4916292;29;20471;-87
2023/10/01 03:25:40;;;;;;;10.17;8.17;;;;;;;11.81;100.00;154391.75;4922778;29;20464;-86
2023/10/01 03:28:11;;;;;;;11.80;8.67;;;;;;;11.79;100.00;154386.53;4918205;29;20559;-87
2023/10/01 03:30:46;;;;;;;13.03;9.67;;;;;;;11.76;100.00;154378.75;4894774;29;20468;-87
2023/10/01 03:33:16;;;;;;;11.67;9.57;;;;;;;11.74;100.00;154374.88;4920449;29;20489;-85
2023/10/01 03:35:47;;;;;;;11.13;9.00;;;;;;;11.71;100.00;154365.81;4909450;29;20449;-87
2023/10/01 03:38:15;;;;;;;11.20;8.67;;;;;;;11.71;100.00;154367.09;4908042;29;20488;-87
2023/10/01 03:43:31;;;;;;;11.83;8.97;;;;;;;11.66;100.00;154354.09;4924396;29;20471;-87
2023/10/01 03:46:06;;;;;;;12.63;9.57;;;;;;;11.60;100.00;154339.84;4925655;29;20965;-87
2023/10/01 03:48:57;;;;;;;15.50;10.27;;;;;;;11.59;100.00;154335.97;4918192;29;20863;-87
2023/10/01 03:51:28;;;;;;;13.07;10.00;;;;;;;11.63;100.00;154346.31;4895720;29;20459;-87
2023/10/01 03:53:59;;;;;;;11.50;8.27;;;;;;;11.63;100.00;154347.63;4917597;29;20461;-88
2023/10/01 03:56:29;;;;;;;12.10;9.03;;;;;;;11.63;100.00;154347.63;4913988;29;20478;-86
2023/10/01 03:58:57;;;;;;;11.37;9.27;;;;;;;11.61;100.00;154342.44;4904979;29;20467;-87
2023/10/01 04:01:34;;;;;;;14.33;9.73;;;;;;;11.60;100.00;154338.53;4907243;29;20487;-86
2023/10/01 04:04:06;;;;;;;10.50;8.53;;;;;;;11.57;100.00;154332.06;4922825;29;20467;-87
2023/10/01 04:06:33;;;;;;;15.30;9.80;;;;;;;11.56;100.00;154328.19;4910730;29;20875;-87
2023/10/01 04:09:06;;;;;;;11.90;8.40;;;;;;;11.53;100.00;154320.41;4911193;29;20475;-87
2023/10/01 04:11:51;;;;;;;9.60;8.37;;;;;;;11.52;100.00;154317.81;4901087;29;20441;-86
2023/10/01 04:14:18;;;;;;;12.00;8.67;;;;;;;11.54;100.00;154324.28;4906369;29;20456;-87
2023/10/01 04:16:48;;;;;;;12.10;8.97;;;;;;;11.55;100.00;154325.59;4937495;29;20510;-87
2023/10/01 04:19:18;;;;;;;13.17;8.87;;;;;;;11.54;100.00;154324.28;4915151;29;20461;-87
2023/10/01 04:21:50;;;;;;;12.10;8.60;;;;;;;11.54;100.00;154323.03;4910843;29;20592;-87
2023/10/01 04:24:19;;;;;;;9.97;7.70;;;;;;;11.53;100.00;154320.41;4908278;29;20551;-87
2023/10/01 04:26:47;;;;;;;14.83;9.53;;;;;;;11.53;100.00;154320.41;4912626;29;20467;-87
2023/10/01 04:29:16;;;;;;;11.70;8.80;;;;;;;11.52;100.00;154317.81;4928679;29;20463;-88
2023/10/01 04:31:48;;;;;;;9.43;7.63;;;;;;;11.51;100.00;154315.25;4928241;29;20559;-88
2023/10/01 04:34:17;;;;;;;14.87;9.50;;;;;;;11.49;100.00;154311.31;4936587;29;20468;-88
2023/10/01 04:36:50;;;;;;;11.50;8.83;;;;;;;11.48;100.00;154307.47;4930629;29;20455;-88
2023/10/01 04:39:17;;;;;;;12.90;8.77;;;;;;;11.47;100.00;154304.84;4916435;29;20539;-88
2023/10/01 04:41:45;;;;;;;11.33;8.67;;;;;;;11.44;100.00;154297.06;4908397;29;20499;-88
2023/10/01 04:44:13;;;;;;;10.10;8.17;;;;;;;11.41;100.00;154289.34;4919473;29;20491;-88
2023/10/01 04:46:41;;;;;;;9.93;7.43;;;;;;;11.41;100.00;154289.34;4911045;29;20471;-88
2023/10/01 04:49:27;;;;;;;11.57;7.70;;;;;;;11.39;100.00;154285.41;4923406;29;20499;-88
2023/10/01 04:51:56;;;;;;;11.97;8.30;;;;;;;11.37;100.00;154280.25;4930952;29;20469;-88
2023/10/01 04:54:25;;;;;;;10.70;7.73;;;;;;;11.36;100.00;154277.63;4925006;29;20481;-87
2023/10/01 04:56:57;;;;;;;13.47;9.17;;;;;;;11.34;100.00;154272.47;4930160;29;20484;-87
2023/10/01 04:59:24;;;;;;;11.10;8.20;;;;;;;11.33;100.00;154269.84;4918090;29;20534;-87
2023/10/01 05:01:56;;;;;;;14.07;9.37;;;;;;;11.32;100.00;154267.31;4913961;29;20857;-87
2023/10/01 05:04:23;;;;;;;11.87;9.20;;;;;;;11.32;100.00;154266.00;4917320;29;20669;-87
2023/10/01 05:07:00;;;;;;;9.93;8.17;;;;;;;11.30;100.00;154260.81;4937252;29;20790;-86
2023/10/01 05:09:29;;;;;;;12.90;8.23;;;;;;;11.28;100.00;154256.91;4917058;29;20463;-87
2023/10/01 05:11:56;;;;;;;10.90;8.37;;;;;;;11.26;100.00;154251.75;4941747;29;20466;-86
2023/10/01 05:14:22;;;;;;;10.73;8.93;;;;;;;11.26;100.00;154250.44;4944391;29;20465;-86
2023/10/01 05:16:49;;;;;;;10.07;8.07;;;;;;;11.22;100.00;154240.09;4924553;29;20580;-87
2023/10/01 05:19:19;;;;;;;12.60;7.93;;;;;;;11.20;100.00;154234.94;4913423;29;21214;-87
2023/10/01 05:21:47;;;;;;;11.97;8.60;;;;;;;11.18;100.00;154229.72;4906723;29;20558;-87
2023/10/01 05:24:31;;;;;;;11.80;7.10;;;;;;;11.17;100.00;154227.16;4921265;29;20876;-86
2023/10/01 05:27:02;;;;;;;11.07;8.53;;;;;;;11.18;100.00;154229.72;4936630;29;20507;-87
2023/10/01 05:29:29;;;;;;;10.43;8.53;;;;;;;11.18;100.00;154229.72;4908774;29;20460;-87
2023/10/01 05:31:56;;;;;;;13.57;8.90;;;;;;;11.19;100.00;154232.31;4920780;29;20575;-86
2023/10/01 05:34:25;;;;;;;11.77;9.33;;;;;;;11.18;100.00;154229.72;4920542;29;20554;-87
2023/10/01 05:36:52;;;;;;;11.77;8.63;;;;;;;11.16;100.00;154224.53;4905869;29;20573;-86
2023/10/01 05:39:23;;;;;;;12.03;9.43;;;;;;;11.14;100.00;154219.38;4933273;29;20456;-87
2023/10/01 05:41:51;;;;;;;11.27;8.23;;;;;;;11.16;100.00;154225.84;4921948;29;20559;-86
2023/10/01 05:44:21;;;;;;;13.23;9.63;;;;;;;11.20;100.00;154234.94;4942579;29;20460;-87
2023/10/01 05:46:48;;;;;;;11.33;8.63;;;;;;;11.21;100.00;154237.47;4925223;29;20523;-87
2023/10/01 05:49:18;;;;;;;9.60;8.10;;;;;;;11.24;100.00;154245.25;4915995;29;20455;-86
2023/10/01 05:51:46;;;;;;;11.37;9.87;;;;;;;11.29;100.00;154259.53;4920162;29;20541;-87
2023/10/01 05:54:18;;;;;;;13.43;8.93;;;;;;;11.38;100.00;154281.56;4937196;29;20969;-87
2023/10/01 05:56:48;;;;;;;15.40;9.77;;;;;;;11.43;100.00;154294.50;4915826;29;21106;-86
2023/10/01 05:59:16;;;;;;;12.30;9.20;;;;;;;11.49;100.00;154310.06;4892190;29;20883;-87
2023/10/01 06:01:48;;;;;;;11.77;9.40;;;;;;;11.55;100.00;154326.88;4915160;29;20483;-86
2023/10/01 06:04:17;;;;;;;12.10;9.10;;;;;;;11.65;100.00;154351.50;4885828;29;20512;-86
2023/10/01 06:06:46;;;;;;;11.20;7.90;;;;;;;11.76;100.00;154380.06;4916167;29;20463;-87
2023/10/01 06:09:14;;;;;;;11.27;8.50;;;;;;;11.91;100.00;154418.97;4894104;29;20539;-87
2023/10/01 06:11:48;;;;;;;12.10;8.90;;;;;;;12.08;100.00;154463.03;4885315;29;20468;-87
2023/10/01 06:17:10;;;;;;;11.03;7.93;;;;;;;12.50;100.00;154570.63;5079239;27;20650;-88
2023/10/01 06:19:40;;;;;;;9.83;7.63;;;;;;;12.71;100.00;154625.09;5079865;28;20461;-87
2023/10/01 06:22:15;;;;;;;11.33;9.10;;;;;;;12.90;100.00;154673.09;5113139;28;20808;-87
2023/10/01 06:24:43;;;;;;;11.13;7.80;;;;;;;13.12;100.00;154730.22;5059705;28;20457;-87
2023/10/01 06:27:12;;;;;;;10.67;7.57;;;;;;;13.34;100.00;154786.03;5112050;28;20441;-85
2023/10/01 06:29:49;;;;;;;10.80;7.77;;;;;;;13.54;99.40;154836.63;5079271;28;20869;-87
2023/10/01 06:32:19;;;;;;;9.73;7.53;;;;;;;13.73;98.82;154887.25;5107629;28;20497;-87
2023/10/01 06:34:47;;;;;;;12.47;7.80;;;;;;;13.90;98.06;154930.06;5079389;28;20460;-86
2023/10/01 06:37:14;;;;;;;9.37;7.53;;;;;;;14.03;97.91;154965.13;5079130;28;20452;-86
2023/10/01 06:39:41;;;;;;;12.40;7.63;;;;;;;14.14;97.28;154991.13;5080576;28;20445;-86
2023/10/01 06:44:54;;;;;;;10.07;7.67;;;;;;;14.45;96.08;155072.97;5080308;28;20449;-86
2023/10/01 06:47:23;;;;;;;9.63;6.83;;;;;;;14.72;95.99;155140.50;5082106;28;20791;-87
2023/10/01 06:50:14;;;;;;;9.03;6.50;;;;;;;14.95;94.64;155200.25;5059795;28;20461;-86
2023/10/01 06:52:42;;;;;;;10.67;7.73;;;;;;;15.23;93.59;155273.00;5077436;28;20462;-86
2023/10/01 06:55:25;;;;;;;9.50;6.60;;;;;;;15.44;92.32;155327.59;5080291;28;21021;-86
2023/10/01 06:57:52;;;;;;;8.00;6.63;;;;;;;15.65;91.13;155380.91;5081250;28;20442;-87
2023/10/01 07:00:21;;;;;;;9.60;6.80;;;;;;;15.83;89.95;155427.75;5079607;28;20453;-86
2023/10/01 07:02:50;;;;;;;9.97;7.00;;;;;;;16.08;89.19;155491.44;5083344;28;20448;-87
2023/10/01 07:05:20;;;;;;;9.47;7.30;;;;;;;16.29;88.07;155547.34;5098647;28;20825;-87
2023/10/01 07:07:48;;;;;;;13.03;8.07;;;;;;;16.53;87.52;155608.53;5096481;28;20536;-87
2023/10/01 07:10:15;;;;;;;12.30;7.83;;;;;;;16.76;85.99;155668.38;5063141;28;20546;-87
2023/10/01 07:12:53;;;;;;;11.43;8.03;;;;;;;16.99;85.16;155726.94;5078817;28;20450;-91
2023/10/01 07:15:20;;;;;;;11.00;7.60;;;;;;;17.26;84.45;155797.16;5077506;28;20481;-88
2023/10/01 07:17:49;;;;;;;12.53;8.17;;;;;;;17.48;83.08;155853.16;5079080;28;20477;-87
2023/10/01 07:20:19;;;;;;;7.80;6.87;;;;;;;17.66;81.93;155900.06;5081270;28;20461;-87
2023/10/01 07:22:46;;;;;;;10.37;7.37;;;;;;;17.88;81.12;155957.34;5081452;28;20890;-87
2023/10/01 07:25:28;;;;;;;8.73;7.43;;;;;;;18.08;80.47;156008.16;5079206;28;20586;-86
2023/10/01 07:27:56;;;;;;;9.07;7.10;;;;;;;18.33;79.40;156073.25;5085738;28;20433;-87
2023/10/01 07:30:39;;;;;;;10.60;7.53;;;;;;;18.50;78.62;156116.31;5048267;28;20466;-87
2023/10/01 07:33:07;;;;;;;9.20;7.80;;;;;;;18.73;77.89;156177.53;5067172;28;20461;-87
2023/10/01 07:35:35;;;;;;;9.03;6.93;;;;;;;18.87;76.83;156212.72;5050252;28;20470;-87
2023/10/01 07:38:02;;;;;;;8.80;7.20;;;;;;;18.96;75.65;156236.13;5084749;28;20434;-87
2023/10/01 07:40:50;;;;;;;8.83;7.63;;;;;;;19.12;76.03;156277.84;5100051;28;20450;-87
2023/10/01 07:43:15;;;;;;;14.27;7.83;;;;;;;19.31;75.18;156327.38;5058149;28;20484;-86
2023/10/01 07:45:55;;;;;;;7.70;6.70;;;;;;;19.42;74.64;156356.09;5068188;28;20453;-87
2023/10/01 07:48:24;;;;;;;11.60;8.00;;;;;;;19.57;74.18;156392.56;5076875;28;20739;-86
2023/10/01 07:50:51;;;;;;;10.97;8.03;;;;;;;19.64;74.16;156412.16;5066031;28;20499;-86
2023/10/01 07:53:18;;;;;;;9.93;7.87;;;;;;;19.74;73.73;156436.91;5067905;28;20453;-87
2023/10/01 07:55:46;;;;;;;9.20;7.57;;;;;;;19.69;73.54;156423.88;5083479;28;20481;-86
2023/10/01 07:58:25;;;;;;;10.07;7.83;;;;;;;19.77;73.66;156446.06;5080633;28;20450;-86
2023/10/01 08:01:28;;;;;;;9.87;8.00;;;;;;;19.82;73.33;156459.09;5098772;28;20477;-86
2023/10/01 08:03:55;;;;;;;9.30;7.70;;;;;;;19.83;72.33;156460.41;5066360;28;20541;-87
2023/10/01 08:06:29;;;;;;;8.87;7.80;;;;;;;19.78;72.99;156447.31;5099493;28;20448;-86
2023/10/01 08:08:57;;;;;;;8.67;7.77;;;;;;;19.74;73.74;156436.91;5057065;28;20968;-85
2023/10/01 08:14:20;;;;;;;9.20;7.97;;;;;;;19.50;74.14;156375.66;5081238;28;20530;-85
2023/10/01 08:16:50;;;;;;;8.67;7.73;;;;;;;19.31;74.94;156327.38;5064388;28;20509;-86
2023/10/01 08:19:20;;;;;;;8.83;7.13;;;;;;;19.26;74.39;156313.03;5063731;28;20446;-86
2023/10/01 08:21:50;;;;;;;9.57;7.47;;;;;;;19.31;74.10;156326.06;5076676;28;20573;-86
2023/10/01 08:24:19;;;;;;;13.60;8.73;;;;;;;19.33;73.55;156332.56;5069479;28;20450;-86
2023/10/01 08:26:57;;;;;;;11.40;7.87;;;;;;;19.37;73.51;156343.06;5062732;28;20594;-86
2023/10/01 08:29:28;;;;;;;11.20;7.73;;;;;;;19.36;74.19;156340.41;5057393;28;20446;-86
2023/10/01 08:32:09;;;;;;;10.17;7.73;;;;;;;19.28;76.19;156318.22;5062371;28;20541;-85
2023/10/01 08:37:22;;;;;;;8.30;6.90;;;;;;;19.23;75.36;156306.53;5056671;28;20466;-85
2023/10/01 08:39:48;;;;;;;7.43;6.40;;;;;;;19.18;75.97;156293.50;5061919;28;20485;-85
2023/10/01 08:42:17;;;;;;;11.00;8.30;;;;;;;19.19;74.89;156294.81;5063742;28;20449;-84
2023/10/01 08:44:46;;;;;;;8.93;7.67;;;;;;;19.19;75.40;156296.13;5062702;28;20842;-84
2023/10/01 08:47:31;;;;;;;10.37;7.83;;;;;;;19.14;76.09;156283.03;5077879;28;20807;-84
2023/10/01 08:50:17;;;;;;;8.60;7.27;;;;;;;19.11;76.31;156275.25;5063532;28;20469;-84
2023/10/01 08:52:52;;;;;;;11.37;7.13;;;;;;;19.16;76.57;156288.28;5064246;28;20888;-85
2023/10/01 08:55:22;;;;;;;8.33;7.17;;;;;;;19.13;77.99;156280.47;5046431;28;20476;-85
2023/10/01 08:57:52;;;;;;;7.60;6.60;;;;;;;19.02;77.59;156250.47;5078481;28;20455;-84
2023/10/01 09:00:20;;;;;;;11.30;7.87;;;;;;;18.93;77.66;156228.31;5094680;28;20457;-84
2023/10/01 09:02:51;;;;;;;9.37;7.27;;;;;;;18.90;78.03;156220.53;5065736;28;20496;-85
2023/10/01 09:05:23;;;;;;;11.20;8.03;;;;;;;18.91;77.34;156223.09;5047822;28;20463;-84
2023/10/01 09:08:14;;;;;;;10.70;8.10;;;;;;;19.01;77.07;156249.16;5063282;28;20541;-84
2023/10/01 09:10:39;;;;;;;8.87;7.40;;;;;;;19.09;76.57;156270.00;5064300;28;20499;-84
2023/10/01 09:13:20;;;;;;;10.97;8.43;;;;;;;19.17;76.07;156290.88;5097887;28;20445;-84
2023/10/01 09:15:53;;;;;;;8.63;7.30;;;;;;;19.16;76.07;156286.97;5079976;28;20832;-83
2023/10/01 09:18:22;;;;;;;10.53;7.20;;;;;;;19.22;76.78;156303.88;5074251;28;20431;-84
2023/10/01 09:21:08;;;;;;;9.50;7.83;;;;;;;19.31;76.08;156327.38;5080412;28;20994;-84
2023/10/01 09:23:54;;;;;;;10.87;6.60;;;;;;;19.28;76.89;156319.53;5062970;28;20446;-84
2023/10/01 09:26:37;;;;;;;8.67;7.43;;;;;;;19.26;76.44;156314.34;5063186;28;20458;-84
2023/10/01 09:29:13;;;;;;;11.23;7.73;;;;;;;19.25;76.38;156310.41;5065166;28;20450;-84
2023/10/01 09:31:52;;;;;;;8.40;6.10;;;;;;;19.27;76.12;156316.91;5062500;28;20450;-84
2023/10/01 09:34:31;;;;;;;8.70;7.00;;;;;;;19.34;77.15;156333.88;5063987;28;20529;-84
2023/10/01 09:37:03;;;;;;;11.30;7.20;;;;;;;19.30;77.64;156323.47;5080336;28;20827;-84
2023/10/01 09:39:38;;;;;;;9.00;7.40;;;;;;;19.22;77.25;156303.88;5080547;28;20438;-84
2023/10/01 09:42:22;;;;;;;7.77;6.20;;;;;;;19.28;76.97;156319.53;5064132;28;20541;-84
2023/10/01 09:44:52;;;;;;;9.73;6.23;;;;;;;19.36;76.88;156340.41;5079773;28;20684;-84
2023/10/01 09:47:23;;;;;;;9.63;6.70;;;;;;;19.39;76.80;156348.28;5064080;28;20852;-84
2023/10/01 09:49:52;;;;;;;8.80;6.37;;;;;;;19.43;77.16;156358.69;5060862;28;20499;-84
2023/10/01 09:52:27;;;;;;;9.77;6.53;;;;;;;19.54;77.28;156386.06;5062411;28;20564;-84
2023/10/01 09:55:02;;;;;;;11.40;7.43;;;;;;;19.63;75.75;156408.22;5078207;28;20529;-84
2023/10/01 09:57:34;;;;;;;10.83;7.40;;;;;;;19.68;75.60;156421.25;5057856;28;20472;-84
2023/10/01 10:00:14;;;;;;;10.10;6.60;;;;;;;19.73;76.41;156434.28;5058071;28;21196;-84
2023/10/01 10:02:51;;;;;;;8.93;6.60;;;;;;;19.78;76.58;156447.31;5061200;28;20995;-83
2023/10/01 10:05:24;;;;;;;13.30;6.87;;;;;;;19.75;75.13;156439.56;5061845;28;20555;-84
2023/10/01 10:07:54;;;;;;;8.70;6.80;;;;;;;19.68;75.35;156421.25;5060231;28;20588;-84
2023/10/01 10:10:25;;;;;;;8.80;6.50;;;;;;;19.70;75.42;156426.47;5062129;28;20527;-85
2023/10/01 10:12:56;;;;;;;9.57;6.97;;;;;;;19.74;74.66;156436.91;5062629;28;20566;-84
2023/10/01 10:15:55;;;;;;;8.77;6.33;;;;;;;19.78;74.53;156447.31;5061662;28;20528;-84
2023/10/01 10:18:23;;;;;;;11.97;7.03;;;;;;;19.83;74.78;156460.41;5001726;28;20534;-84
2023/10/01 10:20:58;;;;;;;9.50;7.07;;;;;;;19.82;74.07;156459.09;5047283;28;21015;-84
2023/10/01 10:23:30;;;;;;;11.03;7.80;;;;;;;19.84;74.73;156464.31;5045210;28;20453;-84
2023/10/01 10:26:12;;;;;;;9.57;7.00;;;;;;;19.88;74.35;156473.44;5061643;28;20472;-84
2023/10/01 10:28:53;;;;;;;8.30;6.33;;;;;;;19.92;74.64;156483.84;5045754;28;20532;-84
2023/10/01 10:31:33;;;;;;;9.20;7.20;;;;;;;19.91;74.05;156482.53;5045370;28;20824;-84
2023/10/01 10:34:24;;;;;;;10.70;6.83;;;;;;;19.95;74.21;156491.69;5060867;28;20463;-84
2023/10/01 10:36:50;;;;;;;10.20;6.30;;;;;;;19.94;73.54;156489.06;5079135;28;20473;-83
2023/10/01 10:42:46;;;;;;;7.40;5.77;;;;;;;19.94;72.96;156490.38;5056541;28;20594;-84
2023/10/01 10:45:22;;;;;;;9.80;7.37;;;;;;;19.94;74.57;156489.06;5063373;28;20453;-84
2023/10/01 10:48:01;;;;;;;8.60;6.00;;;;;;;19.88;73.92;156473.44;5063273;28;20436;-84
2023/10/01 10:50:45;;;;;;;9.40;6.27;;;;;;;19.87;73.51;156470.81;5061768;28;20462;-84
2023/10/01 10:53:20;;;;;;;7.60;5.57;;;;;;;19.87;73.68;156470.81;5076731;28;20479;-84
2023/10/01 10:55:54;;;;;;;9.27;6.83;;;;;;;19.85;73.56;156466.94;5063022;28;20477;-84
2023/10/01 10:58:22;;;;;;;8.47;6.10;;;;;;;19.90;71.77;156479.97;5078795;28;20523;-84
2023/10/01 11:00:49;;;;;;;7.63;6.10;;;;;;;19.93;72.49;156486.47;5059880;28;20458;-84
2023/10/01 11:03:16;;;;;;;10.00;6.83;;;;;;;20.14;71.29;156539.94;5042337;28;20810;-84
2023/10/01 11:05:50;;;;;;;8.93;6.70;;;;;;;20.08;72.03;156524.25;5096378;28;20484;-84
2023/10/01 11:08:25;;;;;;;7.93;5.80;;;;;;;20.10;71.08;156530.78;5068923;28;21424;-83
2023/10/01 11:10:55;;;;;;;8.37;6.20;;;;;;;20.15;71.88;156543.81;5063055;28;20559;-84
2023/10/01 11:13:37;;;;;;;9.70;5.77;;;;;;;20.21;70.54;156559.50;5065846;28;20898;-84
2023/10/01 11:16:14;;;;;;;11.60;6.47;;;;;;;20.35;69.73;156596.06;5049700;28;20481;-83
2023/10/01 11:18:44;;;;;;;8.00;5.87;;;;;;;20.33;69.98;156590.81;5097583;28;20475;-84
2023/10/01 11:21:20;;;;;;;10.10;6.30;;;;;;;20.26;70.83;156572.56;5056978;28;20799;-84
2023/10/01 11:23:49;;;;;;;7.90;5.77;;;;;;;20.22;70.65;156562.13;5065693;28;20472;-84
2023/10/01 11:26:27;;;;;;;11.10;6.07;;;;;;;20.13;70.80;156538.63;5063647;28;20546;-84
2023/10/01 11:28:57;;;;;;;9.20;6.40;;;;;;;20.15;70.07;156543.81;5065913;28;20453;-83
2023/10/01 11:31:24;;;;;;;10.87;6.40;;;;;;;20.18;70.17;156550.34;5065414;28;20493;-83
2023/10/01 11:34:03;;;;;;;9.87;6.17;;;;;;;20.12;70.02;156536.00;5063473;28;20450;-83
2023/10/01 11:36:36;;;;;;;10.53;5.70;;;;;;;20.11;71.37;156532.09;5066806;28;20484;-84
2023/10/01 11:39:04;;;;;;;8.63;5.60;;;;;;;20.19;70.49;156552.97;5066854;28;20515;-83
2023/10/01 11:41:41;;;;;;;9.80;6.33;;;;;;;20.23;70.76;156564.69;5079817;28;20553;-83
2023/10/01 11:44:09;;;;;;;7.60;6.27;;;;;;;20.24;71.69;156567.38;5093205;28;20472;-84
2023/10/01 11:46:57;;;;;;;9.53;6.47;;;;;;;20.12;72.63;156536.00;5079725;28;20438;-84
2023/10/01 11:49:32;;;;;;;9.60;6.73;;;;;;;20.02;72.08;156511.22;5048550;28;20562;-84
2023/10/01 11:52:01;;;;;;;8.23;6.03;;;;;;;20.04;72.15;156516.44;5046755;28;20450;-84
2023/10/01 11:54:43;;;;;;;8.50;6.27;;;;;;;20.05;72.34;156517.75;5064495;28;20446;-84
2023/10/01 11:57:22;;;;;;;10.03;6.77;;;;;;;20.00;73.05;156504.72;5081487;28;20946;-84